Time;durP1;ratioP1;P1;durP2;ratioP2;P2;SDS_P1;SDS_P2;PMS_P1;PMS_P2;Temp;Humidity;BMP_temperature;BMP_pressure;BME280_temperature;BME280_humidity;BME280_pressure;Samples;Min_cycle;Max_cycle;Signal;HPM_P1;HPM_P2
2023/02/28 00:00:18;;;;;;;48.70;23.40;;;;;;;-4.19;69.29;101982.89;107537;1257;79578;-62
2023/02/28 00:03:20;;;;;;;43.10;22.40;;;;;;;-4.21;69.60;101983.32;107592;1254;81185;-60
2023/02/28 00:06:07;;;;;;;41.90;21.80;;;;;;;-4.23;69.40;101984.27;107554;1254;98516;-63
2023/02/28 00:08:48;;;;;;;43.70;21.90;;;;;;;-4.30;69.58;101983.83;107620;1254;89126;-59
2023/02/28 00:11:28;;;;;;;42.70;23.10;;;;;;;-4.38;69.97;101984.13;107586;1254;95370;-58
2023/02/28 00:14:06;;;;;;;43.00;22.10;;;;;;;-4.46;69.84;101986.52;107558;1253;80487;-60
2023/02/28 00:16:45;;;;;;;46.90;21.20;;;;;;;-4.53;70.01;101985.02;107605;1253;80935;-60
2023/02/28 00:19:30;;;;;;;38.60;21.30;;;;;;;-4.58;69.98;101987.67;107582;1253;98357;-56
2023/02/28 00:22:06;;;;;;;43.90;21.30;;;;;;;-4.64;70.32;101990.88;107430;1254;89355;-57
2023/02/28 00:24:40;;;;;;;44.30;22.00;;;;;;;-4.66;70.57;101990.09;107593;1253;92965;-62
2023/02/28 00:27:17;;;;;;;43.10;21.80;;;;;;;-4.67;70.54;101994.86;107609;1253;82291;-62
2023/02/28 00:29:58;;;;;;;45.90;22.50;;;;;;;-4.67;70.65;101994.85;107615;1253;80128;-56
2023/02/28 00:32:41;;;;;;;44.70;22.60;;;;;;;-4.68;71.02;101997.52;107580;1253;99217;-56
2023/02/28 00:35:19;;;;;;;42.90;21.20;;;;;;;-4.71;71.21;101995.86;107617;1256;88218;-63
2023/02/28 00:38:02;;;;;;;44.70;22.90;;;;;;;-4.74;71.10;101994.77;107596;1253;95211;-63
2023/02/28 00:40:40;;;;;;;42.40;21.60;;;;;;;-4.80;71.58;101996.52;107475;1254;81443;-57
2023/02/28 00:43:21;;;;;;;40.60;21.10;;;;;;;-4.86;71.61;101992.38;107611;1253;81857;-57
2023/02/28 00:46:02;;;;;;;42.30;22.10;;;;;;;-4.94;71.53;101993.84;107580;1253;96443;-62
2023/02/28 00:48:46;;;;;;;40.60;20.80;;;;;;;-4.99;71.48;101992.83;107631;1253;89063;-61
2023/02/28 00:51:31;;;;;;;36.30;20.30;;;;;;;-5.04;72.00;101994.73;107592;1253;94858;-62
2023/02/28 00:54:16;;;;;;;40.50;20.30;;;;;;;-5.08;72.02;101990.30;107616;1252;80285;-61
2023/02/28 00:56:58;;;;;;;38.00;20.60;;;;;;;-5.11;72.05;101991.98;107583;1254;81431;-61
2023/02/28 00:59:41;;;;;;;43.30;20.50;;;;;;;-5.10;72.26;101991.42;107581;1253;97914;-57
2023/02/28 01:02:23;;;;;;;39.50;20.30;;;;;;;-5.14;72.75;101991.38;107601;1254;86725;-57
2023/02/28 01:05:04;;;;;;;41.40;20.20;;;;;;;-5.11;72.77;101994.45;107591;1253;93370;-57
2023/02/28 01:07:48;;;;;;;45.10;22.80;;;;;;;-5.13;72.69;101990.27;107569;1256;80549;-57
2023/02/28 01:10:36;;;;;;;41.40;20.30;;;;;;;-5.15;72.62;101992.30;107595;1256;83411;-61
2023/02/28 01:13:19;;;;;;;36.70;19.70;;;;;;;-5.18;72.99;101993.82;107517;1253;96715;-61
2023/02/28 01:15:58;;;;;;;39.40;20.30;;;;;;;-5.25;73.06;101991.95;107477;1251;88341;-61
2023/02/28 01:18:36;;;;;;;38.10;20.20;;;;;;;-5.32;72.98;101987.95;107634;1251;95953;-61
2023/02/28 01:21:23;;;;;;;44.80;21.50;;;;;;;-5.37;73.35;101993.36;107609;1255;80544;-61
2023/02/28 01:24:03;;;;;;;35.90;20.00;;;;;;;-5.40;73.62;101994.52;107679;1251;83160;-57
2023/02/28 01:26:46;;;;;;;37.70;19.40;;;;;;;-5.41;73.45;101997.71;107601;1251;99006;-57
2023/02/28 01:29:30;;;;;;;38.00;20.00;;;;;;;-5.42;73.75;101992.48;107649;1251;87214;-63
2023/02/28 01:32:07;;;;;;;42.50;20.70;;;;;;;-5.40;73.78;101996.63;107532;1253;95673;-62
2023/02/28 01:34:47;;;;;;;42.40;22.50;;;;;;;-5.39;73.94;101997.30;107685;1256;79639;-61
2023/02/28 01:37:30;;;;;;;43.50;23.80;;;;;;;-5.34;73.77;101997.52;107661;1251;82559;-60
2023/02/28 01:40:12;;;;;;;46.10;23.20;;;;;;;-5.32;73.90;102000.77;107596;1256;99417;-58
2023/02/28 01:42:52;;;;;;;45.00;22.60;;;;;;;-5.36;73.96;102000.55;107656;1251;89083;-58
2023/02/28 01:45:38;;;;;;;43.30;21.70;;;;;;;-5.45;74.02;102004.54;107623;1251;92778;-58
2023/02/28 01:48:18;;;;;;;40.70;22.30;;;;;;;-5.51;74.03;102003.66;107635;1254;82110;-59
2023/02/28 01:51:01;;;;;;;48.30;23.20;;;;;;;-5.57;74.06;102007.00;107703;1251;81762;-60
2023/02/28 01:53:44;;;;;;;41.70;20.80;;;;;;;-5.64;74.35;102006.35;107626;1251;97602;-61
2023/02/28 01:56:23;;;;;;;37.20;20.10;;;;;;;-5.67;74.34;102005.21;107652;1251;89641;-61
2023/02/28 01:59:03;;;;;;;39.60;21.10;;;;;;;-5.69;74.54;102007.05;107633;1251;95513;-57
2023/02/28 02:01:41;;;;;;;42.10;20.80;;;;;;;-5.71;74.64;102007.79;107634;1251;79967;-58
2023/02/28 02:04:29;;;;;;;45.00;21.60;;;;;;;-5.73;74.48;102004.02;107658;1251;80374;-60
2023/02/28 02:07:14;;;;;;;40.40;21.70;;;;;;;-5.73;74.67;102002.26;107678;1251;97960;-61
2023/02/28 02:10:05;;;;;;;43.20;21.30;;;;;;;-5.80;75.03;101999.84;107636;1255;89413;-59
2023/02/28 02:13:04;;;;;;;38.20;20.20;;;;;;;-5.85;74.74;102002.30;107658;1251;91943;-60
2023/02/28 02:15:47;;;;;;;41.60;20.80;;;;;;;-5.89;74.90;102004.35;107619;1251;82304;-62
2023/02/28 02:18:35;;;;;;;41.00;22.10;;;;;;;-5.92;74.91;102003.58;107600;1251;82472;-62
2023/02/28 02:21:49;;;;;;;40.40;20.40;;;;;;;-5.98;74.93;102000.39;107614;1255;97415;-62
2023/02/28 02:25:11;;;;;;;49.00;20.80;;;;;;;-5.97;75.02;102000.04;107650;1251;87279;-61
2023/02/28 02:28:33;;;;;;;43.70;22.40;;;;;;;-5.96;75.04;102003.68;107606;1251;95084;-61
2023/02/28 02:31:55;;;;;;;38.70;20.20;;;;;;;-5.99;75.33;101999.05;107606;1251;82301;-59
2023/02/28 02:34:57;;;;;;;46.60;21.50;;;;;;;-6.05;75.40;102002.39;107204;1256;610282;-58
2023/02/28 02:37:42;;;;;;;44.40;21.70;;;;;;;-6.06;75.44;102004.14;107638;1251;97428;-59
2023/02/28 02:40:21;;;;;;;47.70;22.90;;;;;;;-6.04;75.67;102006.71;107673;1255;88731;-57
2023/02/28 02:43:03;;;;;;;47.50;23.90;;;;;;;-6.05;75.52;102007.09;107654;1255;94123;-57
2023/02/28 02:45:48;;;;;;;49.70;27.10;;;;;;;-6.09;75.72;102009.34;107671;1251;79377;-63
2023/02/28 02:48:30;;;;;;;44.20;24.30;;;;;;;-6.13;75.76;102012.77;107627;1251;83200;-63
2023/02/28 02:51:20;;;;;;;53.30;25.20;;;;;;;-6.14;75.62;102013.34;107623;1251;98604;-57
2023/02/28 02:54:06;;;;;;;48.40;25.50;;;;;;;-6.17;75.92;102013.23;107629;1251;89150;-57
2023/02/28 02:56:50;;;;;;;49.50;24.50;;;;;;;-6.19;75.94;102014.03;107617;1251;93184;-57
2023/02/28 02:59:26;;;;;;;49.10;23.90;;;;;;;-6.25;76.27;102013.66;107638;1251;81223;-63
2023/02/28 03:02:10;;;;;;;50.10;24.70;;;;;;;-6.28;76.18;102013.56;107631;1251;82924;-62
2023/02/28 03:04:47;;;;;;;49.90;20.90;;;;;;;-6.27;76.16;102016.88;107643;1251;98068;-62
2023/02/28 03:07:33;;;;;;;50.00;24.90;;;;;;;-6.26;76.30;102018.79;107652;1251;87024;-63
2023/02/28 03:10:40;;;;;;;50.30;24.80;;;;;;;-6.27;76.32;102015.84;107593;1251;95046;-57
2023/02/28 03:13:49;;;;;;;52.80;24.90;;;;;;;-6.30;76.48;102014.88;107602;1254;78739;-57
2023/02/28 03:17:01;;;;;;;44.90;22.90;;;;;;;-6.38;76.45;102019.29;107652;1251;82711;-59
2023/02/28 03:19:52;;;;;;;45.00;23.90;;;;;;;-6.43;76.30;102015.41;107652;1251;96956;-59
2023/02/28 03:22:53;;;;;;;44.00;23.10;;;;;;;-6.45;76.46;102014.77;107650;1256;87795;-59
2023/02/28 03:25:39;;;;;;;45.20;24.60;;;;;;;-6.48;76.68;102012.05;107676;1251;95404;-62
2023/02/28 03:28:26;;;;;;;44.90;23.00;;;;;;;-6.51;76.79;102013.88;107648;1255;81761;-62
2023/02/28 03:31:14;;;;;;;44.80;23.30;;;;;;;-6.51;76.81;102012.66;107660;1251;81142;-60
2023/02/28 03:33:59;;;;;;;43.90;21.50;;;;;;;-6.51;76.78;102015.64;107637;1251;98937;-61
2023/02/28 03:36:43;;;;;;;46.80;23.20;;;;;;;-6.51;76.82;102017.40;107616;1251;88347;-62
2023/02/28 03:39:22;;;;;;;46.00;23.90;;;;;;;-6.54;76.82;102020.08;107643;1254;94260;-60
2023/02/28 03:42:07;;;;;;;41.30;23.80;;;;;;;-6.56;77.13;102021.70;107645;1251;80877;-60
2023/02/28 03:44:49;;;;;;;44.00;23.20;;;;;;;-6.58;77.21;102021.95;107669;1251;82891;-59
2023/02/28 03:47:29;;;;;;;48.60;24.70;;;;;;;-6.59;77.17;102021.10;107621;1251;96836;-59
2023/02/28 03:50:12;;;;;;;55.20;25.90;;;;;;;-6.56;76.95;102020.51;107667;1251;88902;-59
2023/02/28 03:52:54;;;;;;;59.20;28.40;;;;;;;-6.54;77.05;102027.29;107648;1251;93952;-58
2023/02/28 03:55:38;;;;;;;58.60;28.00;;;;;;;-6.55;77.29;102027.30;107634;1251;81022;-63
2023/02/28 03:58:25;;;;;;;60.20;28.50;;;;;;;-6.62;77.26;102026.94;107653;1251;83368;-63
2023/02/28 04:01:09;;;;;;;58.70;28.70;;;;;;;-6.60;77.33;102029.70;107596;1252;97317;-58
2023/02/28 04:03:53;;;;;;;62.80;30.70;;;;;;;-6.58;77.22;102028.27;107684;1251;88157;-61
2023/02/28 04:06:34;;;;;;;59.70;29.30;;;;;;;-6.57;77.30;102032.79;107631;1251;94835;-61
2023/02/28 04:09:18;;;;;;;56.40;28.70;;;;;;;-6.59;77.31;102026.88;107689;1251;79409;-57
2023/02/28 04:12:02;;;;;;;58.30;28.60;;;;;;;-6.66;77.34;102027.23;107678;1251;83518;-57
2023/02/28 04:14:45;;;;;;;60.50;28.70;;;;;;;-6.70;77.25;102029.80;107642;1251;97460;-60
2023/02/28 04:17:22;;;;;;;62.00;28.90;;;;;;;-6.79;77.45;102030.91;107631;1251;86870;-60
2023/02/28 04:20:09;;;;;;;65.00;27.50;;;;;;;-6.84;77.55;102033.15;107614;1251;95814;-58
2023/02/28 04:22:53;;;;;;;50.40;25.30;;;;;;;-6.85;77.40;102036.16;107661;1251;80252;-58
2023/02/28 04:25:40;;;;;;;55.10;26.80;;;;;;;-6.83;77.54;102035.20;107668;1255;83183;-61
2023/02/28 04:28:14;;;;;;;54.70;25.10;;;;;;;-6.76;77.71;102037.33;107647;1251;97808;-60
2023/02/28 04:30:55;;;;;;;;;;;;;;;-6.75;77.82;102035.35;107666;1251;87457;-62
2023/02/28 04:33:33;;;;;;;58.20;26.60;;;;;;;-6.77;77.95;102035.41;107619;1251;93163;-59
2023/02/28 04:36:09;;;;;;;55.60;26.70;;;;;;;-6.81;77.84;102033.07;107685;1251;76684;-58
2023/02/28 04:38:51;;;;;;;55.00;26.10;;;;;;;-6.84;77.85;102033.49;107703;1251;79759;-60
2023/02/28 04:41:28;;;;;;;57.20;26.60;;;;;;;-6.86;77.94;102028.66;107645;1252;97986;-60
2023/02/28 04:44:05;;;;;;;54.80;26.30;;;;;;;-6.91;78.00;102027.73;107664;1251;87947;-58
2023/02/28 04:46:45;;;;;;;52.10;26.40;;;;;;;-6.95;77.77;102034.14;107663;1251;94530;-58
2023/02/28 04:49:29;;;;;;;51.10;26.40;;;;;;;-6.99;77.90;102034.59;107671;1251;81828;-62
2023/02/28 04:52:09;;;;;;;52.00;24.60;;;;;;;-7.01;77.97;102038.86;107661;1251;80915;-62
2023/02/28 04:54:51;;;;;;;51.50;25.00;;;;;;;-7.04;78.03;102039.44;107653;1251;98938;-62
2023/02/28 04:57:39;;;;;;;49.40;24.80;;;;;;;-7.05;78.23;102043.14;107631;1255;89314;-62
2023/02/28 05:00:18;;;;;;;48.80;24.60;;;;;;;-7.05;78.16;102043.33;107634;1251;94655;-60
2023/02/28 05:02:55;;;;;;;50.40;24.00;;;;;;;-7.03;78.08;102043.98;107624;1251;80606;-60
2023/02/28 05:05:41;;;;;;;45.30;23.80;;;;;;;-7.02;78.46;102041.67;107683;1251;82469;-60
2023/02/28 05:08:18;;;;;;;42.50;22.30;;;;;;;-7.01;78.63;102037.09;107638;1251;98070;-57
2023/02/28 05:10:57;;;;;;;46.60;24.10;;;;;;;-7.00;78.65;102043.73;107656;1251;87374;-57
2023/02/28 05:13:35;;;;;;;54.50;23.40;;;;;;;-7.01;78.69;102048.45;107644;1251;92203;-61
2023/02/28 05:16:11;;;;;;;47.40;23.10;;;;;;;-7.00;78.79;102052.30;107644;1253;81264;-64
2023/02/28 05:18:55;;;;;;;48.90;24.20;;;;;;;-7.00;78.57;102059.28;107585;1251;81618;-59
2023/02/28 05:21:37;;;;;;;50.90;24.60;;;;;;;-6.98;78.77;102062.25;107589;1253;98115;-58
2023/02/28 05:24:14;;;;;;;59.60;26.60;;;;;;;-6.97;78.67;102066.23;107651;1251;86057;-62
2023/02/28 05:26:49;;;;;;;52.80;25.10;;;;;;;-6.94;78.86;102068.77;107625;1254;93377;-61
2023/02/28 05:29:41;;;;;;;55.70;25.20;;;;;;;-6.90;78.82;102073.41;107679;1251;82077;-58
2023/02/28 05:32:21;;;;;;;53.50;26.90;;;;;;;-6.87;78.87;102077.19;107634;1251;82609;-58
2023/02/28 05:34:55;;;;;;;49.70;24.30;;;;;;;-6.81;78.94;102081.25;107667;1251;95913;-62
2023/02/28 05:37:30;;;;;;;58.60;28.20;;;;;;;-6.77;79.10;102086.55;107666;1251;87835;-62
2023/02/28 05:40:11;;;;;;;53.10;26.50;;;;;;;-6.71;79.07;102088.67;107678;1254;94832;-62
2023/02/28 05:42:51;;;;;;;54.20;27.40;;;;;;;-6.66;79.24;102085.58;107696;1251;79110;-63
2023/02/28 05:45:28;;;;;;;53.90;25.50;;;;;;;-6.61;79.13;102087.54;107694;1251;83425;-58
